Time;durP1;ratioP1;P1;durP2;ratioP2;P2;SDS_P1;SDS_P2;PMS_P1;PMS_P2;Temp;Humidity;BMP_temperature;BMP_pressure;BME280_temperature;BME280_humidity;BME280_pressure;Samples;Min_cycle;Max_cycle;Signal;HPM_P1;HPM_P2
2024/04/18 00:01:32;;;;;;;4.82;2.40;;;4.90;99.90;;;;;;5481800;26;20010;-78
2024/04/18 00:03:58;;;;;;;5.80;2.78;;;4.90;99.90;;;;;;5483037;26;20020;-78
2024/04/18 00:06:24;;;;;;;4.32;2.35;;;4.90;99.90;;;;;;5489025;26;20014;-79
2024/04/18 00:08:56;;;;;;;5.03;2.60;;;4.90;99.90;;;;;;5468011;26;20144;-78
2024/04/18 00:11:23;;;;;;;4.90;2.45;;;4.80;99.90;;;;;;5470027;26;19998;-78
2024/04/18 00:13:49;;;;;;;3.95;2.10;;;5.10;99.90;;;;;;5482193;26;20017;-78
2024/04/18 00:16:14;;;;;;;6.18;2.55;;;4.80;99.90;;;;;;5482807;26;20045;-78
2024/04/18 00:18:40;;;;;;;5.70;2.78;;;4.70;99.90;;;;;;5488171;26;20017;-78
2024/04/18 00:21:06;;;;;;;7.47;2.83;;;4.70;99.90;;;;;;5470444;26;20056;-80
2024/04/18 00:23:32;;;;;;;4.28;2.50;;;4.70;99.90;;;;;;5481434;26;20074;-80
2024/04/18 00:26:01;;;;;;;5.28;2.60;;;4.70;99.90;;;;;;5490835;26;20018;-81
2024/04/18 00:28:27;;;;;;;5.78;2.60;;;4.60;99.90;;;;;;5476035;26;20013;-80
2024/04/18 00:30:53;;;;;;;4.45;2.10;;;4.60;99.90;;;;;;5477225;26;20007;-81
2024/04/18 00:33:19;;;;;;;6.15;2.92;;;4.60;99.90;;;;;;5481325;26;20017;-80
2024/04/18 00:35:46;;;;;;;5.78;2.67;;;4.50;99.90;;;;;;5476346;26;20006;-80
2024/04/18 00:38:18;;;;;;;9.98;2.90;;;4.50;99.90;;;;;;5475322;26;20030;-80
2024/04/18 00:40:45;;;;;;;7.18;2.92;;;4.50;99.90;;;;;;5480138;26;20006;-81
2024/04/18 00:43:11;;;;;;;5.28;2.53;;;4.50;99.90;;;;;;5472206;26;20006;-80
2024/04/18 00:45:37;;;;;;;5.22;2.55;;;4.50;99.90;;;;;;5478616;26;19999;-80
2024/04/18 00:48:03;;;;;;;5.10;3.00;;;4.50;99.90;;;;;;5491998;26;20454;-81
2024/04/18 00:50:34;;;;;;;7.63;2.60;;;4.50;99.90;;;;;;5486593;26;20017;-80
2024/04/18 00:53:13;;;;;;;4.43;2.65;;;4.40;99.90;;;;;;5486665;26;20059;-81
2024/04/18 00:55:42;;;;;;;5.07;2.70;;;4.40;99.90;;;;;;5485066;26;20017;-80
2024/04/18 00:58:25;;;;;;;4.55;2.40;;;4.40;99.90;;;;;;5467995;26;20021;-80
2024/04/18 01:00:52;;;;;;;4.65;2.42;;;4.40;99.90;;;;;;5483687;26;20006;-80
2024/04/18 01:03:18;;;;;;;4.53;2.53;;;4.40;99.90;;;;;;5465608;26;20017;-80
2024/04/18 01:05:44;;;;;;;6.15;2.72;;;4.40;99.90;;;;;;5465052;26;20007;-80
2024/04/18 01:08:10;;;;;;;3.95;2.40;;;4.40;99.90;;;;;;5477765;26;20021;-80
2024/04/18 01:10:36;;;;;;;7.93;2.97;;;4.40;99.90;;;;;;5467951;26;20003;-80
2024/04/18 01:13:02;;;;;;;6.72;2.83;;;4.40;99.90;;;;;;5478426;26;20006;-80
2024/04/18 01:15:28;;;;;;;6.78;2.80;;;4.40;99.90;;;;;;5471254;26;20019;-80
2024/04/18 01:17:54;;;;;;;6.15;3.00;;;4.40;99.90;;;;;;5477315;26;20007;-80
2024/04/18 01:20:24;;;;;;;6.28;2.60;;;4.40;99.90;;;;;;5485042;26;20363;-80
2024/04/18 01:22:50;;;;;;;7.05;2.58;;;4.40;99.90;;;;;;5490816;26;20021;-81
2024/04/18 01:25:17;;;;;;;7.30;2.47;;;4.40;99.90;;;;;;5474006;26;20026;-80
2024/04/18 01:27:42;;;;;;;7.40;2.70;;;4.40;99.90;;;;;;5485122;26;20485;-81
2024/04/18 01:30:14;;;;;;;7.00;2.80;;;4.40;99.90;;;;;;5487709;26;20347;-80
2024/04/18 01:32:39;;;;;;;6.45;2.70;;;4.40;99.90;;;;;;5476094;26;20007;-80
2024/04/18 01:35:06;;;;;;;5.93;3.25;;;4.40;99.90;;;;;;5476519;26;20045;-83
2024/04/18 01:37:32;;;;;;;7.57;2.50;;;4.30;99.90;;;;;;5487722;26;20006;-80
2024/04/18 01:39:58;;;;;;;6.18;2.72;;;4.40;99.90;;;;;;5483007;26;20037;-80
2024/04/18 01:42:24;;;;;;;6.53;2.80;;;4.30;99.90;;;;;;5489565;26;20017;-80
2024/04/18 01:44:51;;;;;;;6.75;3.17;;;4.30;99.90;;;;;;5478504;26;20082;-82
2024/04/18 01:47:17;;;;;;;4.35;2.78;;;4.30;99.90;;;;;;5474852;26;19998;-79
2024/04/18 01:49:43;;;;;;;5.45;2.70;;;4.90;99.90;;;;;;5461403;26;20006;-79
2024/04/18 01:52:08;;;;;;;8.82;2.45;;;4.90;99.90;;;;;;5478597;26;20419;-80
2024/04/18 01:54:34;;;;;;;5.63;2.53;;;4.20;99.90;;;;;;5490057;26;19994;-80
2024/04/18 01:57:00;;;;;;;6.88;2.47;;;4.20;99.90;;;;;;5485609;26;20446;-80
2024/04/18 01:59:26;;;;;;;6.53;2.65;;;4.20;99.90;;;;;;5464812;26;20483;-81
2024/04/18 02:01:54;;;;;;;6.13;2.42;;;4.20;99.90;;;;;;5474914;26;20017;-80
2024/04/18 02:04:20;;;;;;;5.00;2.33;;;4.20;99.90;;;;;;5483005;26;20350;-80
2024/04/18 02:06:51;;;;;;;5.72;2.42;;;4.10;99.90;;;;;;5484360;26;19995;-80
2024/04/18 02:09:18;;;;;;;6.30;2.50;;;4.10;99.90;;;;;;5479810;26;20018;-82
2024/04/18 02:11:44;;;;;;;5.78;2.30;;;4.10;99.90;;;;;;5472303;26;20400;-80
2024/04/18 02:14:11;;;;;;;6.03;2.40;;;4.10;99.90;;;;;;5476195;26;20006;-80
2024/04/18 02:16:37;;;;;;;4.93;2.13;;;4.10;99.90;;;;;;5482213;26;20006;-81
2024/04/18 02:19:02;;;;;;;2.97;2.03;;;4.00;99.90;;;;;;5478656;26;20016;-82
2024/04/18 02:21:28;;;;;;;5.43;2.40;;;4.00;99.90;;;;;;5480361;26;20021;-79
2024/04/18 02:23:54;;;;;;;5.45;2.30;;;3.90;99.90;;;;;;5477801;26;20344;-80
2024/04/18 02:26:19;;;;;;;5.65;2.42;;;3.90;99.90;;;;;;5472080;26;20017;-80
2024/04/18 02:28:45;;;;;;;4.97;2.35;;;3.90;99.90;;;;;;5480225;26;20372;-82
2024/04/18 02:31:11;;;;;;;3.38;2.13;;;3.80;99.90;;;;;;5487350;26;20006;-82
2024/04/18 02:33:36;;;;;;;4.55;2.03;;;3.80;99.90;;;;;;5464448;26;20006;-79
2024/04/18 02:36:13;;;;;;;4.97;2.30;;;3.70;99.90;;;;;;5471817;26;19998;-82
2024/04/18 02:38:39;;;;;;;6.63;2.65;;;3.70;99.90;;;;;;5486717;26;20017;-80
2024/04/18 02:41:07;;;;;;;5.72;2.17;;;3.70;99.90;;;;;;5470077;26;20456;-83
2024/04/18 02:43:33;;;;;;;3.75;2.15;;;3.60;99.90;;;;;;5473456;26;20014;-80
2024/04/18 02:45:58;;;;;;;3.63;2.05;;;3.70;99.90;;;;;;5465033;26;20447;-80
2024/04/18 02:48:24;;;;;;;3.63;1.92;;;3.60;99.90;;;;;;5467947;26;20002;-80
2024/04/18 02:51:10;;;;;;;4.80;2.10;;;3.60;99.90;;;;;;5483539;26;20013;-80
2024/04/18 02:53:36;;;;;;;5.28;2.40;;;3.60;99.90;;;;;;5470682;26;19998;-82
2024/04/18 02:56:01;;;;;;;3.90;1.83;;;3.60;99.90;;;;;;5472705;26;20006;-79
2024/04/18 02:58:27;;;;;;;4.13;1.90;;;3.50;99.90;;;;;;5465233;26;20479;-80
2024/04/18 03:00:53;;;;;;;3.90;2.17;;;4.30;99.90;;;;;;5465145;26;20006;-79
2024/04/18 03:03:18;;;;;;;3.83;2.20;;;3.50;99.90;;;;;;5469836;26;20006;-80
2024/04/18 03:05:44;;;;;;;3.63;1.90;;;3.50;99.90;;;;;;5468983;26;20079;-84
2024/04/18 03:08:10;;;;;;;3.03;1.85;;;3.40;99.90;;;;;;5477876;26;20014;-80
2024/04/18 03:10:55;;;;;;;5.25;2.08;;;3.40;99.90;;;;;;5465305;26;20359;-80
2024/04/18 03:13:21;;;;;;;5.05;2.25;;;3.40;99.90;;;;;;5452492;26;20007;-79
2024/04/18 03:15:47;;;;;;;6.15;2.42;;;3.40;99.90;;;;;;5468111;26;20016;-80
2024/04/18 03:18:13;;;;;;;5.20;2.40;;;3.30;99.90;;;;;;5469805;26;20890;-80
2024/04/18 03:20:40;;;;;;;6.15;2.20;;;3.40;99.90;;;;;;5470290;26;19999;-80
2024/04/18 03:23:07;;;;;;;4.13;2.40;;;3.30;99.90;;;;;;5460432;26;20467;-80
2024/04/18 03:25:33;;;;;;;4.93;2.30;;;3.30;99.90;;;;;;5476848;26;20006;-83
2024/04/18 03:27:58;;;;;;;6.68;2.40;;;3.30;99.90;;;;;;5470253;26;20481;-79
2024/04/18 03:30:24;;;;;;;4.65;1.95;;;3.30;99.90;;;;;;5470540;26;20002;-79
2024/04/18 03:32:50;;;;;;;4.05;1.90;;;3.30;99.90;;;;;;5486337;26;20045;-80
2024/04/18 03:35:15;;;;;;;4.18;2.20;;;3.30;99.90;;;;;;5483510;26;20017;-80
2024/04/18 03:37:41;;;;;;;6.32;2.55;;;3.20;99.90;;;;;;5478922;26;20006;-82
2024/04/18 03:40:07;;;;;;;8.43;2.47;;;3.20;99.90;;;;;;5481714;26;20021;-80
2024/04/18 03:42:33;;;;;;;8.27;2.63;;;3.20;99.90;;;;;;5472554;26;20023;-80
2024/04/18 03:44:59;;;;;;;5.57;2.55;;;3.20;99.90;;;;;;5451863;26;20492;-82
2024/04/18 03:47:25;;;;;;;4.93;2.35;;;3.20;99.90;;;;;;5460274;26;20017;-83
2024/04/18 03:49:51;;;;;;;8.82;2.58;;;3.30;99.90;;;;;;5467027;26;19994;-79
2024/04/18 03:52:26;;;;;;;7.75;2.35;;;3.30;99.90;;;;;;5468397;26;20003;-79
2024/04/18 03:54:51;;;;;;;5.47;2.50;;;3.20;99.90;;;;;;5477341;26;20355;-79
2024/04/18 03:57:37;;;;;;;4.30;2.10;;;3.20;99.90;;;;;;5475292;26;20336;-81
2024/04/18 04:00:03;;;;;;;5.50;1.95;;;3.20;99.90;;;;;;5455453;26;20146;-79
2024/04/18 04:02:33;;;;;;;4.47;2.20;;;3.20;99.90;;;;;;5470285;26;20016;-80
2024/04/18 04:04:59;;;;;;;5.03;2.28;;;3.10;99.90;;;;;;5484987;26;20013;-79
2024/04/18 04:07:25;;;;;;;4.78;2.13;;;3.40;99.90;;;;;;5481840;26;20016;-79
2024/04/18 04:10:11;;;;;;;6.10;2.40;;;3.20;99.90;;;;;;5454569;26;20010;-79
2024/04/18 04:12:37;;;;;;;5.72;2.35;;;3.10;99.90;;;;;;5459842;26;20007;-80
2024/04/18 04:15:03;;;;;;;6.72;2.47;;;3.10;99.90;;;;;;5479209;26;20009;-80
2024/04/18 04:17:49;;;;;;;6.70;2.30;;;3.20;99.90;;;;;;5479672;26;20078;-79
2024/04/18 04:20:15;;;;;;;7.93;2.40;;;3.10;99.90;;;;;;5476033;26;20014;-79
2024/04/18 04:22:40;;;;;;;4.97;2.20;;;3.20;99.90;;;;;;5482643;26;20007;-80
2024/04/18 04:25:06;;;;;;;6.43;2.20;;;3.10;99.90;;;;;;5483723;26;20539;-80
2024/04/18 04:27:45;;;;;;;5.32;2.50;;;3.10;99.90;;;;;;5478165;26;20010;-79
2024/04/18 04:30:11;;;;;;;7.00;2.30;;;3.10;99.90;;;;;;5477955;26;20369;-80
2024/04/18 04:32:37;;;;;;;5.13;2.42;;;3.10;99.90;;;;;;5477014;26;20012;-80
2024/04/18 04:35:03;;;;;;;5.80;2.35;;;3.10;99.90;;;;;;5478087;26;20007;-81
2024/04/18 04:37:29;;;;;;;7.72;2.50;;;3.10;99.90;;;;;;5476512;26;20017;-80
2024/04/18 04:39:55;;;;;;;7.03;2.53;;;3.10;99.90;;;;;;5487692;26;19994;-82
2024/04/18 04:42:21;;;;;;;7.22;2.60;;;3.10;99.90;;;;;;5489992;26;20366;-81
2024/04/18 04:44:47;;;;;;;5.65;2.33;;;3.20;99.90;;;;;;5474970;26;20038;-81
2024/04/18 04:47:13;;;;;;;6.95;2.63;;;3.20;99.90;;;;;;5493899;26;20524;-80
2024/04/18 04:49:38;;;;;;;7.05;2.35;;;4.40;99.90;;;;;;5487764;26;20355;-80
2024/04/18 04:52:06;;;;;;;7.45;2.70;;;3.30;99.90;;;;;;5478939;26;20018;-80
2024/04/18 04:54:32;;;;;;;7.25;2.40;;;3.30;99.90;;;;;;5471346;26;20006;-82
2024/04/18 04:56:58;;;;;;;8.18;2.53;;;3.30;99.90;;;;;;5480686;26;20061;-80
2024/04/18 04:59:23;;;;;;;5.32;2.40;;;3.40;99.90;;;;;;5483632;26;19998;-82
2024/04/18 05:01:49;;;;;;;5.50;2.30;;;3.40;99.90;;;;;;5482904;26;20022;-80
2024/04/18 05:04:15;;;;;;;5.38;2.58;;;3.40;99.90;;;;;;5478492;26;21917;-80
2024/04/18 05:06:41;;;;;;;6.47;2.60;;;3.40;99.90;;;;;;5474317;26;20036;-80
2024/04/18 05:09:08;;;;;;;6.28;2.30;;;3.40;99.90;;;;;;5483995;26;20014;-80
2024/04/18 05:11:33;;;;;;;4.68;2.55;;;3.40;99.90;;;;;;5486397;26;20022;-80
2024/04/18 05:13:59;;;;;;;7.65;2.50;;;3.40;99.90;;;;;;5474765;26;20006;-80
2024/04/18 05:16:25;;;;;;;6.68;2.45;;;3.40;99.90;;;;;;5479152;26;20092;-81
2024/04/18 05:18:50;;;;;;;6.15;2.75;;;3.40;99.90;;;;;;5472103;26;19999;-80
2024/04/18 05:21:17;;;;;;;4.18;2.08;;;4.50;99.90;;;;;;5484716;26;19998;-81
2024/04/18 05:23:43;;;;;;;7.63;2.40;;;3.40;99.90;;;;;;5487276;26;20013;-79
2024/04/18 05:26:09;;;;;;;6.60;2.47;;;3.40;99.90;;;;;;5485413;26;20042;-79
2024/04/18 05:28:41;;;;;;;10.20;2.70;;;3.40;99.90;;;;;;5470929;26;20014;-82
2024/04/18 05:31:10;;;;;;;10.32;2.70;;;3.40;99.90;;;;;;5486658;26;19998;-79
2024/04/18 05:33:35;;;;;;;6.45;2.72;;;3.40;99.90;;;;;;5475001;26;20043;-79
2024/04/18 05:36:03;;;;;;;8.63;2.90;;;3.40;99.90;;;;;;5489892;26;19994;-80
2024/04/18 05:38:28;;;;;;;6.63;2.88;;;3.50;99.90;;;;;;5484455;26;19995;-79
2024/04/18 05:40:54;;;;;;;6.35;2.50;;;3.40;99.90;;;;;;5472701;26;20687;-80
2024/04/18 05:43:20;;;;;;;7.97;2.70;;;3.40;99.90;;;;;;5485356;26;20079;-79
2024/04/18 05:45:49;;;;;;;5.70;2.70;;;3.40;99.90;;;;;;5487967;26;20002;-79
2024/04/18 05:48:15;;;;;;;5.45;2.85;;;3.50;99.90;;;;;;5469839;26;20352;-81
2024/04/18 05:50:41;;;;;;;3.85;2.45;;;3.50;99.90;;;;;;5483898;26;19998;-80
2024/04/18 05:53:07;;;;;;;5.20;2.47;;;3.50;99.90;;;;;;5478238;26;20003;-84
2024/04/18 05:55:33;;;;;;;7.63;2.70;;;3.50;99.90;;;;;;5474945;26;20006;-83
2024/04/18 05:58:00;;;;;;;8.05;2.55;;;3.50;99.90;;;;;;5489238;26;20006;-81
2024/04/18 06:00:26;;;;;;;7.35;2.88;;;3.50;99.90;;;;;;5489058;26;20362;-80
2024/04/18 06:02:52;;;;;;;7.68;2.70;;;3.60;99.90;;;;;;5488005;26;20017;-84
2024/04/18 06:05:17;;;;;;;6.20;2.58;;;3.60;99.90;;;;;;5488345;26;20006;-81
2024/04/18 06:07:43;;;;;;;5.78;2.92;;;3.60;99.90;;;;;;5476315;26;20016;-80
2024/04/18 06:10:09;;;;;;;4.90;2.53;;;3.70;99.90;;;;;;5481237;26;20037;-79
2024/04/18 06:12:35;;;;;;;6.50;2.95;;;3.70;99.90;;;;;;5464017;26;20022;-79
2024/04/18 06:15:00;;;;;;;6.63;2.55;;;3.70;99.90;;;;;;5469391;26;20086;-79
2024/04/18 06:17:27;;;;;;;10.98;2.72;;;3.80;99.90;;;;;;5458875;26;20015;-79
2024/04/18 06:19:53;;;;;;;5.85;2.60;;;3.80;99.90;;;;;;5475739;26;20021;-79
2024/04/18 06:22:19;;;;;;;13.45;3.33;;;3.90;99.90;;;;;;5467913;26;20007;-80
2024/04/18 06:24:44;;;;;;;7.18;2.92;;;3.90;99.90;;;;;;5475092;26;20050;-80
2024/04/18 06:27:10;;;;;;;10.18;2.88;;;4.00;99.90;;;;;;5463907;26;20336;-77
2024/04/18 06:29:36;;;;;;;8.55;3.22;;;4.00;99.90;;;;;;5471846;26;20056;-77
2024/04/18 06:32:02;;;;;;;6.60;2.85;;;4.10;99.90;;;;;;5474054;26;20019;-77
2024/04/18 06:34:28;;;;;;;11.10;3.38;;;4.20;99.90;;;;;;5474701;26;20002;-78
2024/04/18 06:36:54;;;;;;;8.43;2.88;;;4.20;99.90;;;;;;5468030;26;20471;-78
2024/04/18 06:39:20;;;;;;;7.43;2.83;;;4.30;99.90;;;;;;5471918;26;20007;-77
2024/04/18 06:41:46;;;;;;;8.68;2.83;;;4.40;99.90;;;;;;5476151;26;20038;-77
2024/04/18 06:44:12;;;;;;;8.10;3.00;;;4.40;99.90;;;;;;5470507;26;20017;-78
2024/04/18 06:46:38;;;;;;;8.27;3.08;;;4.50;99.90;;;;;;5469396;26;20017;-78
2024/04/18 06:49:05;;;;;;;6.60;2.70;;;4.50;99.90;;;;;;5465425;26;20006;-78
2024/04/18 06:51:30;;;;;;;8.98;2.95;;;4.60;99.90;;;;;;5473872;26;20258;-79
2024/04/18 06:53:56;;;;;;;8.60;2.60;;;4.70;99.90;;;;;;5469668;26;20011;-78
2024/04/18 06:56:22;;;;;;;8.13;2.75;;;4.80;99.90;;;;;;5466270;26;20021;-78
2024/04/18 06:58:48;;;;;;;4.63;2.50;;;4.90;99.90;;;;;;5475212;26;20006;-78
2024/04/18 07:01:13;;;;;;;7.50;2.95;;;4.90;99.90;;;;;;5478639;26;20056;-78
2024/04/18 07:03:39;;;;;;;6.53;2.80;;;5.00;99.90;;;;;;5478257;26;20010;-78
2024/04/18 07:06:05;;;;;;;5.93;2.38;;;5.00;99.90;;;;;;5465034;26;20011;-78
2024/04/18 07:08:31;;;;;;;9.15;2.90;;;5.10;99.90;;;;;;5481229;26;20002;-78
2024/04/18 07:10:58;;;;;;;4.88;2.53;;;5.20;99.90;;;;;;5476289;26;20006;-78
2024/04/18 07:13:25;;;;;;;5.80;2.85;;;5.20;99.90;;;;;;5483888;26;20002;-78
2024/04/18 07:15:51;;;;;;;8.95;3.20;;;5.30;99.90;;;;;;5472516;26;20104;-79
2024/04/18 07:18:16;;;;;;;11.65;3.28;;;5.90;99.90;;;;;;5459267;26;20014;-78
2024/04/18 07:20:42;;;;;;;7.80;2.53;;;5.40;99.90;;;;;;5476979;26;20017;-78
2024/04/18 07:23:08;;;;;;;6.35;2.95;;;5.50;99.90;;;;;;5463051;26;20011;-78
2024/04/18 07:25:37;;;;;;;6.45;2.47;;;5.70;99.90;;;;;;5472990;26;20489;-79
2024/04/18 07:28:03;;;;;;;7.32;2.55;;;5.60;99.90;;;;;;5467841;26;20007;-78
2024/04/18 07:30:28;;;;;;;11.02;2.80;;;5.70;99.90;;;;;;5475201;26;20094;-78
2024/04/18 07:32:54;;;;;;;7.47;2.60;;;5.70;99.90;;;;;;5473782;26;20043;-78
2024/04/18 07:35:20;;;;;;;6.82;2.70;;;5.80;99.90;;;;;;5482834;26;20018;-79
2024/04/18 07:37:47;;;;;;;6.25;2.40;;;5.90;99.90;;;;;;5477331;26;20022;-79
2024/04/18 07:40:15;;;;;;;6.80;2.55;;;5.90;99.90;;;;;;5470935;26;20006;-77
2024/04/18 07:42:40;;;;;;;5.22;1.95;;;6.10;99.90;;;;;;5465626;26;20014;-78
2024/04/18 07:45:06;;;;;;;10.77;2.40;;;6.10;99.90;;;;;;5462872;26;20074;-79
2024/04/18 07:47:33;;;;;;;9.75;2.40;;;6.30;99.90;;;;;;5471903;26;20050;-79
2024/04/18 07:49:59;;;;;;;12.25;2.42;;;6.20;99.90;;;;;;5465888;26;20470;-79
2024/04/18 07:52:26;;;;;;;8.27;1.98;;;6.30;99.90;;;;;;5477864;26;20080;-79
2024/04/18 07:54:51;;;;;;;6.30;1.83;;;6.30;99.90;;;;;;5480623;26;20017;-79
2024/04/18 07:57:17;;;;;;;7.78;2.00;;;6.40;99.90;;;;;;5465412;26;20033;-78
2024/04/18 07:59:43;;;;;;;5.68;1.90;;;6.40;99.90;;;;;;5478419;26;20105;-78
2024/04/18 08:02:08;;;;;;;8.60;2.38;;;6.50;99.90;;;;;;5468970;26;20503;-78
2024/04/18 08:04:34;;;;;;;8.50;2.00;;;6.60;99.90;;;;;;5476974;26;20083;-78
2024/04/18 08:07:00;;;;;;;4.75;1.67;;;6.60;99.90;;;;;;5483550;26;20014;-79
2024/04/18 08:09:25;;;;;;;8.30;2.58;;;6.90;99.90;;;;;;5471524;26;19994;-79
2024/04/18 08:11:51;;;;;;;5.72;1.90;;;6.60;99.90;;;;;;5470120;26;20323;-81
2024/04/18 08:14:17;;;;;;;7.18;1.70;;;6.70;99.90;;;;;;5478536;26;20017;-79
2024/04/18 08:16:45;;;;;;;5.47;1.70;;;6.70;99.90;;;;;;5482719;26;20738;-79
2024/04/18 08:19:11;;;;;;;6.38;1.77;;;6.80;99.90;;;;;;5473274;26;20081;-79
2024/04/18 08:21:37;;;;;;;5.72;1.67;;;6.90;99.90;;;;;;5482126;26;20014;-79
2024/04/18 08:24:02;;;;;;;5.70;1.60;;;7.00;99.90;;;;;;5466003;26;20006;-79
2024/04/18 08:26:29;;;;;;;6.47;1.73;;;7.10;99.90;;;;;;5450168;26;20014;-79
2024/04/18 08:28:55;;;;;;;4.28;1.40;;;7.20;99.90;;;;;;5476397;26;20010;-76
2024/04/18 08:31:20;;;;;;;4.40;1.50;;;7.30;99.90;;;;;;5439400;26;20470;-76
2024/04/18 08:33:47;;;;;;;6.38;1.67;;;7.40;99.90;;;;;;5479153;26;20006;-76
2024/04/18 08:36:13;;;;;;;5.63;1.52;;;7.50;99.90;;;;;;5463226;26;20090;-77
2024/04/18 08:38:39;;;;;;;4.55;1.50;;;7.60;99.90;;;;;;5468774;26;20013;-77
2024/04/18 08:41:11;;;;;;;4.90;1.80;;;7.70;99.90;;;;;;5478279;26;20006;-76
2024/04/18 08:43:37;;;;;;;4.88;1.60;;;7.80;99.90;;;;;;5466695;26;20358;-75
2024/04/18 08:46:05;;;;;;;6.55;1.40;;;8.20;99.90;;;;;;5476384;26;19998;-77
2024/04/18 08:48:34;;;;;;;4.20;1.60;;;7.90;99.90;;;;;;5471677;26;19998;-77
2024/04/18 08:51:01;;;;;;;5.20;1.27;;;8.00;99.90;;;;;;5483487;26;20007;-77
2024/04/18 08:53:27;;;;;;;3.90;1.30;;;8.30;99.90;;;;;;5465494;26;20014;-77
2024/04/18 08:55:54;;;;;;;7.35;1.77;;;8.40;99.90;;;;;;5479975;26;20020;-77
2024/04/18 08:58:21;;;;;;;9.57;1.85;;;9.00;99.90;;;;;;5460692;26;20078;-77
2024/04/18 09:00:48;;;;;;;6.25;1.70;;;8.50;99.90;;;;;;5469056;26;20006;-76
2024/04/18 09:03:14;;;;;;;7.30;1.73;;;8.40;99.90;;;;;;5475097;26;19998;-76
2024/04/18 09:05:42;;;;;;;4.18;1.50;;;8.40;99.90;;;;;;5477904;26;20034;-76
2024/04/18 09:08:09;;;;;;;4.97;2.22;;;8.30;99.90;;;;;;5479507;26;20010;-76
2024/04/18 09:10:35;;;;;;;5.07;1.58;;;8.40;99.90;;;;;;5483663;26;20025;-74
2024/04/18 09:13:01;;;;;;;5.50;1.75;;;8.80;99.90;;;;;;5469137;26;20018;-75
2024/04/18 09:15:27;;;;;;;3.50;1.13;;;9.10;99.90;;;;;;5472124;26;20364;-75
2024/04/18 09:18:03;;;;;;;6.00;1.27;;;9.50;99.90;;;;;;5477680;26;20018;-75
2024/04/18 09:20:33;;;;;;;3.65;1.10;;;9.50;99.90;;;;;;5478534;26;20013;-75
2024/04/18 09:22:59;;;;;;;3.92;1.02;;;9.50;99.90;;;;;;5461408;26;20007;-75
2024/04/18 09:25:25;;;;;;;1.95;1.10;;;9.60;99.90;;;;;;5466942;26;20694;-75
2024/04/18 09:27:51;;;;;;;5.95;1.20;;;9.60;99.90;;;;;;5457203;26;20083;-75
2024/04/18 09:30:17;;;;;;;6.10;1.65;;;9.40;99.90;;;;;;5467411;26;20006;-74
2024/04/18 09:32:42;;;;;;;5.93;1.65;;;9.30;99.90;;;;;;5469894;26;20006;-75
2024/04/18 09:35:09;;;;;;;7.50;2.05;;;9.40;99.90;;;;;;5458371;26;20007;-75
2024/04/18 09:37:38;;;;;;;6.07;1.38;;;9.10;99.90;;;;;;5479544;26;20125;-75
2024/04/18 09:40:08;;;;;;;9.23;1.60;;;9.00;99.90;;;;;;5467506;26;20052;-75
2024/04/18 09:42:47;;;;;;;3.40;1.13;;;8.90;99.90;;;;;;5452481;26;20017;-75
2024/04/18 09:45:17;;;;;;;4.07;1.30;;;8.90;99.90;;;;;;5482816;26;20006;-75
2024/04/18 09:47:44;;;;;;;1.55;1.15;;;9.10;99.90;;;;;;5457155;26;20014;-75
2024/04/18 09:50:13;;;;;;;3.53;1.23;;;9.50;99.90;;;;;;5459095;26;20031;-75
2024/04/18 09:52:40;;;;;;;5.55;1.10;;;9.90;99.90;;;;;;5469058;26;20002;-75
2024/04/18 09:55:08;;;;;;;4.50;1.58;;;10.00;99.90;;;;;;5480111;26;19998;-75
2024/04/18 09:57:35;;;;;;;5.78;1.15;;;10.60;99.90;;;;;;5451801;26;20007;-75
2024/04/18 10:00:02;;;;;;;5.70;1.13;;;10.80;99.90;;;;;;5478572;26;20011;-75
2024/04/18 10:02:29;;;;;;;3.60;1.60;;;11.20;99.90;;;;;;5473589;26;20007;-75
2024/04/18 10:04:55;;;;;;;4.15;1.25;;;11.40;99.90;;;;;;5471821;26;20056;-75
2024/04/18 10:07:23;;;;;;;2.45;1.20;;;11.40;99.90;;;;;;5464957;26;19995;-75
2024/04/18 10:09:50;;;;;;;6.18;1.20;;;11.60;99.90;;;;;;5469957;26;20007;-75
2024/04/18 10:12:18;;;;;;;2.95;0.95;;;11.60;99.90;;;;;;5464530;26;20387;-75
2024/04/18 10:14:44;;;;;;;5.35;1.10;;;11.60;99.90;;;;;;5483171;26;20002;-75
2024/04/18 10:17:29;;;;;;;4.75;0.90;;;11.70;99.90;;;;;;5468983;26;19998;-75
2024/04/18 10:19:58;;;;;;;6.47;1.27;;;11.80;99.90;;;;;;5487174;26;20006;-75
2024/04/18 10:22:24;;;;;;;2.35;1.00;;;11.90;99.90;;;;;;5465925;26;20034;-75
2024/04/18 10:24:50;;;;;;;9.45;1.42;;;11.70;99.90;;;;;;5457931;26;20467;-75
2024/04/18 10:27:19;;;;;;;4.35;1.20;;;11.60;99.90;;;;;;5480028;26;20006;-75
2024/04/18 10:29:55;;;;;;;4.72;1.23;;;11.40;99.90;;;;;;5464306;26;20018;-75
2024/04/18 10:32:22;;;;;;;5.38;1.08;;;11.30;99.90;;;;;;5473903;26;20007;-75
2024/04/18 10:34:48;;;;;;;5.82;1.17;;;11.10;99.90;;;;;;5479224;26;19998;-75
2024/04/18 10:37:20;;;;;;;5.68;1.33;;;11.00;99.90;;;;;;5470274;26;20082;-76
2024/04/18 10:39:47;;;;;;;3.60;1.30;;;10.90;99.90;;;;;;5474131;26;20006;-76
2024/04/18 10:42:14;;;;;;;7.38;1.20;;;10.90;99.90;;;;;;5481098;26;20013;-75
2024/04/18 10:44:40;;;;;;;5.97;1.70;;;10.80;99.90;;;;;;5479081;26;20134;-77
2024/04/18 10:47:07;;;;;;;6.13;1.63;;;10.90;99.90;;;;;;5476847;26;20467;-75
2024/04/18 10:49:33;;;;;;;4.20;1.30;;;11.00;99.90;;;;;;5476096;26;20006;-75
2024/04/18 10:52:00;;;;;;;3.70;0.82;;;11.20;99.90;;;;;;5484308;26;20038;-75
2024/04/18 10:54:27;;;;;;;4.22;0.85;;;11.60;99.90;;;;;;5475059;26;20014;-75
2024/04/18 10:56:53;;;;;;;3.25;0.82;;;11.80;99.90;;;;;;5475599;26;20527;-75
2024/04/18 10:59:19;;;;;;;3.10;0.90;;;12.00;99.90;;;;;;5463265;26;20015;-75
2024/04/18 11:01:44;;;;;;;3.00;0.90;;;12.10;99.90;;;;;;5484353;26;20075;-75
2024/04/18 11:04:10;;;;;;;1.30;0.70;;;12.30;99.90;;;;;;5468480;26;20403;-75
2024/04/18 11:06:37;;;;;;;2.38;0.90;;;12.30;99.90;;;;;;5474401;26;20009;-75
2024/04/18 11:09:02;;;;;;;2.22;0.95;;;12.20;99.90;;;;;;5476302;26;20006;-75
2024/04/18 11:11:32;;;;;;;4.38;1.02;;;12.10;99.90;;;;;;5475998;26;20014;-75
2024/04/18 11:13:59;;;;;;;3.35;0.90;;;12.00;99.90;;;;;;5475782;26;20005;-75
2024/04/18 11:16:25;;;;;;;4.97;1.00;;;11.90;99.90;;;;;;5483554;26;20002;-74
2024/04/18 11:18:52;;;;;;;3.83;1.00;;;11.80;99.90;;;;;;5469390;26;20006;-75
2024/04/18 11:21:18;;;;;;;2.45;0.90;;;11.70;99.90;;;;;;5474137;26;20022;-75
2024/04/18 11:23:44;;;;;;;6.13;1.25;;;11.70;99.90;;;;;;5483072;26;20405;-76
2024/04/18 11:26:13;;;;;;;4.47;0.95;;;11.70;99.90;;;;;;5482361;26;20014;-75
2024/04/18 11:28:39;;;;;;;4.07;1.27;;;11.80;99.90;;;;;;5457205;26;20003;-75
2024/04/18 11:31:05;;;;;;;5.82;1.38;;;12.00;99.90;;;;;;5470548;26;19998;-76
2024/04/18 11:33:33;;;;;;;4.68;1.00;;;12.20;99.90;;;;;;5466484;26;20005;-75
2024/04/18 11:35:59;;;;;;;5.78;1.15;;;12.50;99.90;;;;;;5470780;26;20002;-75
2024/04/18 11:38:24;;;;;;;6.68;1.50;;;12.80;99.90;;;;;;5465532;26;20344;-75
2024/04/18 11:40:50;;;;;;;4.90;1.20;;;12.90;99.90;;;;;;5462913;26;20002;-76
2024/04/18 11:43:16;;;;;;;6.47;1.35;;;13.00;99.90;;;;;;5467863;26;20510;-75
2024/04/18 11:45:42;;;;;;;4.53;1.20;;;13.10;99.90;;;;;;5482193;26;20006;-75
2024/04/18 11:48:07;;;;;;;3.92;1.17;;;13.00;99.90;;;;;;5474196;26;20014;-76
2024/04/18 11:50:33;;;;;;;3.30;1.20;;;12.80;99.90;;;;;;5473732;26;20010;-75
2024/04/18 11:53:00;;;;;;;3.28;1.10;;;12.60;99.90;;;;;;5459021;26;20017;-76
2024/04/18 11:55:26;;;;;;;3.00;1.23;;;12.40;99.90;;;;;;5483802;26;20006;-77
2024/04/18 11:57:52;;;;;;;2.63;1.02;;;12.10;99.90;;;;;;5483110;26;20017;-76
2024/04/18 12:00:18;;;;;;;2.10;1.15;;;11.90;99.90;;;;;;5452334;26;20014;-76
2024/04/18 12:02:44;;;;;;;3.45;0.85;;;11.70;99.90;;;;;;5474679;26;20010;-75
2024/04/18 12:05:09;;;;;;;2.13;1.02;;;11.60;99.90;;;;;;5470943;26;20013;-75
2024/04/18 12:07:35;;;;;;;3.47;1.00;;;11.50;99.90;;;;;;5484811;26;20408;-75
2024/04/18 12:10:01;;;;;;;2.58;1.15;;;11.40;99.90;;;;;;5474338;26;20007;-79
2024/04/18 12:12:26;;;;;;;4.28;1.05;;;11.40;99.90;;;;;;5474617;26;20021;-75
2024/04/18 12:14:54;;;;;;;3.60;1.10;;;11.40;99.90;;;;;;5475270;26;19994;-75
2024/04/18 12:17:21;;;;;;;5.28;1.50;;;11.40;99.90;;;;;;5466310;26;19999;-75
2024/04/18 12:19:46;;;;;;;3.60;1.13;;;11.40;99.90;;;;;;5461145;26;20054;-75
2024/04/18 12:22:15;;;;;;;5.65;1.48;;;11.50;99.90;;;;;;5457866;26;20014;-75
2024/04/18 12:24:41;;;;;;;6.60;1.58;;;11.50;99.90;;;;;;5469966;26;20006;-75
2024/04/18 12:27:07;;;;;;;4.18;1.40;;;11.60;99.90;;;;;;5477714;26;20343;-77
2024/04/18 12:29:33;;;;;;;4.30;1.40;;;11.80;99.90;;;;;;5462053;26;20021;-77
2024/04/18 12:32:01;;;;;;;5.30;1.50;;;11.70;99.90;;;;;;5459694;26;20002;-75
2024/04/18 12:34:27;;;;;;;5.00;1.33;;;11.70;99.90;;;;;;5449300;26;20012;-76
2024/04/18 12:36:53;;;;;;;5.45;1.50;;;11.80;99.90;;;;;;5475881;26;20022;-78
2024/04/18 12:39:18;;;;;;;4.00;1.50;;;11.80;99.90;;;;;;5462935;26;20463;-75
2024/04/18 12:41:44;;;;;;;4.30;1.52;;;11.80;99.90;;;;;;5449117;26;20011;-75
2024/04/18 12:44:12;;;;;;;3.78;1.50;;;11.70;99.90;;;;;;5461915;26;20019;-75
2024/04/18 12:46:38;;;;;;;4.00;1.38;;;11.70;99.90;;;;;;5451154;26;20079;-75
2024/04/18 12:49:04;;;;;;;3.45;1.40;;;11.70;99.90;;;;;;5469781;26;20014;-76
2024/04/18 12:51:30;;;;;;;4.95;1.20;;;11.60;99.90;;;;;;5458256;26;20006;-76
2024/04/18 12:53:56;;;;;;;2.97;1.10;;;11.50;99.90;;;;;;5455004;26;20047;-75